Hauptseite
METAR-TAF:

METAR-TAF

Flughäfen :

London City Airport

London, England

Breite: 51-30N, Länge: 000-03E, Höhe: 5 m

Beobachtung

Neuester Wetterbericht von vor 32 Minuten, um 11:20 UTC
Wind 10 kt aus Süd, variierte zwischen Südost und West/Südwest
Temperatur 15°C
Luftfeuchtigkeit 63%
Luftdruck 1023 hPa
Sichtweite 10 km oder mehr

METAR: EGLC 141120Z AUTO 19010KT 140V240 9999 NCD 15/08 Q1023

Zeit: 11:52 (11:52 UTC)

Prognose

Neuester Wetterbericht von vor 48 Minuten, um 11:04 UTC
Gültige Prognose vom 14 um 12 UTC bis 14 um 21 UTC
Wind 10 kt aus Süd
Sichtweite 10 km oder mehr
Leicht bewölkt in der Höhe von 3000 ft
Übergehend zu
vom 14 um 18 UTC bis 14 um 21 UTC
Sichtweite: 8000 m
Durchbrochene Bewölkung in der Höhe von 1200 ft

TAF: EGLC 141104Z 1412/1421 19010KT 9999 FEW030 BECMG 1418/1421 8000 BKN012

Wetterbeobachtungen und Prognosen von mehr als 4000 Flughäfen (METAR und TAF Bericht).

Die verfügbaren Stationen werden durch gelbe und rote Markierungen auf der Karte dargestellt.

Führen Sie die Maus auf sie, um den Namen der Station zu sehen.

Darauf klicken, um die Beobachtung von Wetterbeobachtungen und Prognosen zu sehen.

Um die Karte zu ändern : klicken Sie auf den grünen Tasten mit einem schwarzen Kreuz Zum Vergrößern, auf den grünen Button mit einem Gedankenstrich zu verkleinern, oder auf die grünen Pfeile für benachbarte Karten.


METAR-TAF: